Time;durP1;ratioP1;P1;durP2;ratioP2;P2;SDS_P1;SDS_P2;PMS_P1;PMS_P2;Temp;Humidity;BMP_temperature;BMP_pressure;BME280_temperature;BME280_humidity;BME280_pressure;Samples;Min_cycle;Max_cycle;Signal;HPM_P1;HPM_P2
2022/02/21 00:02:18;598240.00;1.99;1031.18;0.00;0.00;0.62;;;;;12.30;1.00;;;;;;2264271;61;1597;-87
2022/02/21 00:04:45;529275.00;1.76;912.24;0.00;0.00;0.62;;;;;12.50;1.00;;;;;;2264231;61;1614;-86
2022/02/21 00:07:12;421914.00;1.41;727.48;0.00;0.00;0.62;;;;;12.60;1.00;;;;;;2264298;61;1028;-86
2022/02/21 00:09:39;505604.00;1.69;871.47;0.00;0.00;0.62;;;;;12.70;1.00;;;;;;2264113;61;1285;-86
2022/02/21 00:12:09;702583.00;2.34;1211.72;0.00;0.00;0.62;;;;;12.50;1.00;;;;;;2264207;61;1365;-87
2022/02/21 00:14:42;672030.00;2.24;1158.77;0.00;0.00;0.62;;;;;12.10;1.00;;;;;;2264258;61;1594;-86
2022/02/21 00:17:13;646413.00;2.15;1114.43;0.00;0.00;0.62;;;;;12.00;1.00;;;;;;2264277;61;1424;-85
2022/02/21 00:19:46;562499.00;1.87;969.51;0.00;0.00;0.62;;;;;12.20;1.00;;;;;;2264197;61;1907;-86
2022/02/21 00:22:13;668322.00;2.23;1152.35;0.00;0.00;0.62;;;;;12.30;1.00;;;;;;2264228;61;1664;-86
2022/02/21 00:24:42;542895.00;1.81;935.71;0.00;0.00;0.62;;;;;12.10;1.00;;;;;;2264285;61;1338;-88
2022/02/21 00:27:10;644054.00;2.15;1110.35;0.00;0.00;0.62;;;;;11.80;1.00;;;;;;2264109;61;1477;-86
2022/02/21 00:29:37;878365.00;2.93;1518.15;94285.00;0.31;163.71;;;;;11.90;1.00;;;;;;2264109;61;1411;-86
2022/02/21 00:32:05;575055.00;1.92;991.17;0.00;0.00;0.62;;;;;12.10;1.00;;;;;;2264285;61;1087;-86
2022/02/21 00:34:35;481260.00;1.60;829.57;0.00;0.00;0.62;;;;;12.10;1.00;;;;;;2264301;61;1138;-86
2022/02/21 00:37:03;793877.00;2.65;1370.45;61161.00;0.20;106.48;;;;;12.30;1.00;;;;;;2264216;61;1487;-86
2022/02/21 00:39:30;118249952.00;394.17;66979188.00;0.00;0.00;0.62;;;;;12.50;1.00;;;;;;2264109;61;1911;-88
2022/02/21 00:41:57;586301.00;1.95;1010.57;0.00;0.00;0.62;;;;;12.10;1.00;;;;;;2264278;61;1166;-86
2022/02/21 00:44:25;559465.00;1.86;964.28;0.00;0.00;0.62;;;;;12.10;1.00;;;;;;2264227;61;1100;-86
2022/02/21 00:46:52;748344.00;2.49;1291.18;68392.00;0.23;118.98;;;;;12.00;1.00;;;;;;2264169;61;1661;-86
2022/02/21 00:49:21;573054.00;1.91;987.72;0.00;0.00;0.62;;;;;12.20;1.00;;;;;;2264174;61;1261;-87
2022/02/21 00:51:47;780932.00;2.60;1347.89;56693.00;0.19;98.76;;;;;12.50;1.00;;;;;;2264127;61;1692;-85
2022/02/21 00:54:15;631000.00;2.10;1087.78;0.00;0.00;0.62;;;;;12.40;1.00;;;;;;2264194;61;1511;-86
2022/02/21 00:56:42;452749.00;1.51;780.51;0.00;0.00;0.62;;;;;12.10;1.00;;;;;;2264199;61;1546;-86
2022/02/21 00:59:08;542319.00;1.81;934.72;0.00;0.00;0.62;;;;;12.00;1.00;;;;;;2264111;61;2014;-87
2022/02/21 01:01:40;676260.00;2.25;1166.09;0.00;0.00;0.62;;;;;11.80;1.00;;;;;;2264119;61;1633;-87
2022/02/21 01:04:07;531853.00;1.77;916.68;0.00;0.00;0.62;;;;;11.90;1.00;;;;;;2264136;61;1609;-86
2022/02/21 01:06:36;968454.00;3.23;1676.68;71734.00;0.24;124.76;;;;;12.20;1.00;;;;;;2264188;61;1024;-86
2022/02/21 01:09:04;1385663.00;4.62;2429.76;93715.00;0.31;162.72;;;;;12.30;1.00;;;;;;2264133;61;1249;-86
2022/02/21 01:11:35;1412933.00;4.71;2480.33;89894.00;0.30;156.12;;;;;12.40;1.00;;;;;;2264159;61;1115;-87
2022/02/21 01:14:05;1758403.00;5.86;3139.47;99100.00;0.33;172.02;;;;;12.40;1.00;;;;;;2263992;61;1511;-86
2022/02/21 01:16:32;1554911.00;5.18;2746.88;67894.00;0.23;118.12;;;;;12.50;1.00;;;;;;2264080;61;1590;-87
2022/02/21 01:19:00;752104.00;2.51;1297.72;16757.00;0.06;29.65;;;;;12.40;1.00;;;;;;2264074;61;2001;-86
2022/02/21 01:21:27;1462125.00;4.87;2572.05;80794.00;0.27;140.41;;;;;12.30;1.00;;;;;;2264604;61;1106;-86
2022/02/21 01:23:55;1744401.00;5.81;3112.02;105452.00;0.35;182.98;;;;;12.20;1.00;;;;;;2264866;61;2394;-86
2022/02/21 01:26:24;1170624.00;3.90;2037.20;141340.00;0.47;244.88;;;;;12.10;1.00;;;;;;2264807;61;1065;-87
2022/02/21 01:28:51;120793096.00;402.64;71398400.00;63739.00;0.21;110.94;;;;;11.90;1.00;;;;;;2264754;61;1491;-86
2022/02/21 01:31:18;534661.00;1.78;921.52;78924.00;0.26;137.18;;;;;12.00;1.00;;;;;;2264872;61;1526;-87
2022/02/21 01:33:45;696590.00;2.32;1201.33;101742.00;0.34;176.58;;;;;12.00;1.00;;;;;;2264798;61;2301;-86
2022/02/21 01:36:17;733454.00;2.44;1265.30;121787.00;0.41;211.16;;;;;12.10;1.00;;;;;;2264777;61;1664;-87
2022/02/21 01:38:46;1001837.00;3.34;1735.73;77525.00;0.26;134.76;;;;;11.90;1.00;;;;;;2264436;61;1922;-86
2022/02/21 01:44:03;872280.00;2.91;1507.49;78332.00;0.26;136.16;;;;;12.00;1.00;;;;;;2264902;61;1452;-86
2022/02/21 01:46:30;651509.00;2.17;1123.25;91843.00;0.31;159.49;;;;;11.80;1.00;;;;;;2264838;61;1130;-85
2022/02/21 01:49:04;673357.00;2.24;1161.07;68610.00;0.23;119.36;;;;;11.80;1.00;;;;;;2264764;61;1302;-86
2022/02/21 01:51:33;782219.00;2.61;1350.13;87662.00;0.29;152.27;;;;;11.80;1.00;;;;;;2264695;61;1512;-86
2022/02/21 01:54:01;643639.00;2.15;1109.63;99080.00;0.33;171.98;;;;;11.80;1.00;;;;;;2264744;61;1043;-86
2022/02/21 01:56:29;682820.00;2.28;1177.46;97496.00;0.32;169.25;;;;;11.90;1.00;;;;;;2264722;61;1439;-87
2022/02/21 01:58:56;763611.00;2.55;1317.73;156020.00;0.52;270.18;;;;;11.70;1.00;;;;;;2264645;61;2005;-87
2022/02/21 02:01:23;593566.00;1.98;1023.11;82655.00;0.28;143.62;;;;;11.90;1.00;;;;;;2264779;61;1117;-87
2022/02/21 02:03:50;579302.00;1.93;998.49;83435.00;0.28;144.97;;;;;12.10;1.00;;;;;;2264735;61;2114;-87
2022/02/21 02:06:18;542173.00;1.81;934.47;87485.00;0.29;151.96;;;;;12.20;1.00;;;;;;2264719;61;1081;-86
2022/02/21 02:08:47;602896.00;2.01;1039.22;70720.00;0.24;123.00;;;;;11.90;1.00;;;;;;2264698;61;1344;-87
2022/02/21 02:11:14;590054.00;1.97;1017.05;79093.00;0.26;137.47;;;;;11.70;1.00;;;;;;2264710;61;1063;-87
2022/02/21 02:13:41;696538.00;2.32;1201.24;82184.00;0.27;142.81;;;;;11.90;1.00;;;;;;2264727;61;1324;-86
2022/02/21 02:16:08;668808.00;2.23;1153.19;149809.00;0.50;259.48;;;;;11.90;1.00;;;;;;2264729;61;1577;-87
2022/02/21 02:18:41;654994.00;2.18;1129.28;82631.00;0.28;143.58;;;;;11.90;1.00;;;;;;2264574;61;2002;-86
2022/02/21 02:21:08;677235.00;2.26;1167.78;0.00;0.00;0.62;;;;;11.80;1.00;;;;;;2264621;61;1455;-86
2022/02/21 02:23:36;412405.00;1.37;711.13;0.00;0.00;0.62;;;;;11.80;1.00;;;;;;2264652;61;1047;-87
2022/02/21 02:26:03;523950.00;1.75;903.07;0.00;0.00;0.62;;;;;11.90;1.00;;;;;;2264743;61;886;-87
2022/02/21 02:28:30;621144.00;2.07;1070.74;0.00;0.00;0.62;;;;;12.10;1.00;;;;;;2264642;61;1410;-87
2022/02/21 02:30:57;544215.00;1.81;937.99;0.00;0.00;0.62;;;;;11.90;1.00;;;;;;2264637;61;1090;-86
2022/02/21 02:33:24;460885.00;1.54;794.51;0.00;0.00;0.62;;;;;11.80;1.00;;;;;;2264508;61;1033;-88
2022/02/21 02:35:51;438043.00;1.46;755.22;0.00;0.00;0.62;;;;;12.00;1.00;;;;;;2264616;61;988;-87
2022/02/21 02:38:18;355953.00;1.19;614.09;0.00;0.00;0.62;;;;;12.20;1.00;;;;;;2264604;61;1388;-86
2022/02/21 02:40:46;410203.00;1.37;707.35;0.00;0.00;0.62;;;;;11.90;1.00;;;;;;2264471;61;1924;-87
2022/02/21 02:43:14;510067.00;1.70;879.16;20235.00;0.07;35.68;;;;;11.80;1.00;;;;;;2264575;61;900;-87
2022/02/21 02:45:44;443484.00;1.48;764.57;0.00;0.00;0.62;;;;;12.00;1.00;;;;;;2264629;61;1142;-87
2022/02/21 02:48:11;455306.00;1.52;784.91;0.00;0.00;0.62;;;;;12.10;1.00;;;;;;2264594;61;1249;-87
2022/02/21 02:50:38;511703.00;1.71;881.97;0.00;0.00;0.62;;;;;12.10;1.00;;;;;;2264549;61;1765;-86
2022/02/21 02:53:05;379114.00;1.26;653.90;0.00;0.00;0.62;;;;;11.90;1.00;;;;;;2264579;61;1126;-86
2022/02/21 02:55:36;351961.00;1.17;607.23;0.00;0.00;0.62;;;;;11.90;1.00;;;;;;2264609;61;1042;-87
2022/02/21 02:58:04;388022.00;1.29;669.21;0.00;0.00;0.62;;;;;12.00;1.00;;;;;;2264499;61;1372;-86
2022/02/21 03:00:31;391737.00;1.31;675.60;0.00;0.00;0.62;;;;;11.90;1.00;;;;;;2264489;61;1997;-86
2022/02/21 03:02:58;444376.00;1.48;766.11;0.00;0.00;0.62;;;;;12.10;1.00;;;;;;2264486;61;1684;-86
2022/02/21 03:05:30;434846.00;1.45;749.72;0.00;0.00;0.62;;;;;12.10;1.00;;;;;;2264573;61;1056;-87
2022/02/21 03:07:57;514044.00;1.71;886.01;0.00;0.00;0.62;;;;;11.90;1.00;;;;;;2264443;61;1382;-87
2022/02/21 03:10:28;486616.00;1.62;838.78;0.00;0.00;0.62;;;;;11.60;1.00;;;;;;2264500;61;909;-86
2022/02/21 03:12:55;522976.00;1.74;901.39;0.00;0.00;0.62;;;;;11.60;1.00;;;;;;2264435;61;1147;-87
2022/02/21 03:15:23;645049.00;2.15;1112.07;0.00;0.00;0.62;;;;;11.60;1.00;;;;;;2264515;61;1032;-86
2022/02/21 03:17:52;385030.00;1.28;664.07;0.00;0.00;0.62;;;;;11.50;1.00;;;;;;2264450;61;1497;-86
2022/02/21 03:20:19;660522.00;2.20;1138.84;0.00;0.00;0.62;;;;;11.70;1.00;;;;;;2264305;61;2022;-86
2022/02/21 03:22:53;631907.00;2.11;1089.35;0.00;0.00;0.62;;;;;11.70;1.00;;;;;;2264376;61;1595;-85
2022/02/21 03:25:26;903981.00;3.01;1563.11;0.00;0.00;0.62;;;;;11.70;1.00;;;;;;2264304;61;1396;-86
2022/02/21 03:27:53;617061.00;2.06;1063.69;0.00;0.00;0.62;;;;;11.80;1.00;;;;;;2264379;61;1596;-86
2022/02/21 03:30:25;509809.00;1.70;878.71;0.00;0.00;0.62;;;;;11.70;1.00;;;;;;2264363;61;1369;-86
2022/02/21 03:32:53;709045.00;2.36;1222.93;0.00;0.00;0.62;;;;;11.60;1.00;;;;;;2264387;61;1436;-86
2022/02/21 03:35:26;416841.00;1.39;718.76;0.00;0.00;0.62;;;;;11.60;1.00;;;;;;2264396;61;1446;-86
2022/02/21 03:37:56;646504.00;2.16;1114.59;0.00;0.00;0.62;;;;;11.60;1.00;;;;;;2264426;61;1436;-86
2022/02/21 03:40:29;805671.00;2.69;1391.02;0.00;0.00;0.62;;;;;11.40;1.00;;;;;;2264217;61;1998;-86
2022/02/21 03:43:08;560467.00;1.87;966.01;0.00;0.00;0.62;;;;;11.60;1.00;;;;;;2264357;61;1125;-86
2022/02/21 03:45:51;572026.00;1.91;985.94;0.00;0.00;0.62;;;;;11.90;1.00;;;;;;2264126;61;1545;-86
2022/02/21 03:48:18;592463.00;1.97;1021.21;0.00;0.00;0.62;;;;;11.80;1.00;;;;;;2264213;61;1407;-86
2022/02/21 03:50:54;447141.00;1.49;770.86;0.00;0.00;0.62;;;;;11.90;1.00;;;;;;2264282;61;1485;-86
2022/02/21 03:53:24;632207.00;2.11;1089.86;0.00;0.00;0.62;;;;;11.60;1.00;;;;;;2264209;61;2216;-86
2022/02/21 03:55:51;439388.00;1.46;757.53;0.00;0.00;0.62;;;;;11.70;1.00;;;;;;2264355;61;1038;-87
2022/02/21 03:58:25;508633.00;1.70;876.69;0.00;0.00;0.62;;;;;11.60;1.00;;;;;;2264264;61;1300;-87
2022/02/21 04:00:54;522595.00;1.74;900.73;0.00;0.00;0.62;;;;;11.50;1.00;;;;;;2264293;61;1940;-87
2022/02/21 04:03:21;511307.00;1.70;881.29;0.00;0.00;0.62;;;;;11.70;1.00;;;;;;2264252;61;1490;-86
2022/02/21 04:05:48;587458.00;1.96;1012.57;0.00;0.00;0.62;;;;;11.80;1.00;;;;;;2264323;61;1638;-85
2022/02/21 04:08:15;493829.00;1.65;851.20;0.00;0.00;0.62;;;;;10.10;1.00;;;;;;2264340;61;1256;-84
2022/02/21 04:10:42;703884.00;2.35;1213.97;62981.00;0.21;109.63;;;;;9.00;1.00;;;;;;2264376;61;1092;-85
2022/02/21 04:13:09;463652.00;1.55;799.27;0.00;0.00;0.62;;;;;8.50;1.00;;;;;;2264268;61;988;-86
2022/02/21 04:15:36;521012.00;1.74;898.01;0.00;0.00;0.62;;;;;8.50;1.00;;;;;;2264250;61;2022;-86
2022/02/21 04:18:04;537153.00;1.79;925.82;0.00;0.00;0.62;;;;;8.40;1.00;;;;;;2264311;61;1249;-85
2022/02/21 04:20:31;507212.00;1.69;874.24;0.00;0.00;0.62;;;;;8.50;1.00;;;;;;2264130;61;1930;-86
2022/02/21 04:22:58;715774.00;2.39;1234.60;0.00;0.00;0.62;;;;;8.70;1.00;;;;;;2264048;61;1098;-85
2022/02/21 04:25:25;822633.00;2.74;1420.62;63174.00;0.21;109.96;;;;;8.90;1.00;;;;;;2264129;61;1063;-85
2022/02/21 04:27:56;521431.00;1.74;898.73;0.00;0.00;0.62;;;;;9.00;1.00;;;;;;2264307;61;1105;-86
2022/02/21 04:30:24;452212.00;1.51;779.59;0.00;0.00;0.62;;;;;9.00;1.00;;;;;;2264335;61;1104;-85
2022/02/21 04:32:52;464435.00;1.55;800.61;0.00;0.00;0.62;;;;;8.40;1.00;;;;;;2264308;61;1040;-86
2022/02/21 04:35:22;429202.00;1.43;740.01;0.00;0.00;0.62;;;;;7.70;1.00;;;;;;2264278;61;1010;-86
2022/02/21 04:37:50;531563.00;1.77;916.18;0.00;0.00;0.62;;;;;7.50;1.00;;;;;;2264305;61;1217;-85
2022/02/21 04:40:19;419518.00;1.40;723.36;0.00;0.00;0.62;;;;;7.70;1.00;;;;;;2264188;61;2010;-86
2022/02/21 04:42:48;430981.00;1.44;743.07;0.00;0.00;0.62;;;;;7.90;1.00;;;;;;2264255;61;1180;-85
2022/02/21 04:45:16;445874.00;1.49;768.69;0.00;0.00;0.62;;;;;8.10;1.00;;;;;;2264158;61;1278;-86
2022/02/21 04:47:43;493429.00;1.64;850.51;0.00;0.00;0.62;;;;;7.70;1.00;;;;;;2264166;61;1154;-85
2022/02/21 04:50:11;614326.00;2.05;1058.96;0.00;0.00;0.62;;;;;7.40;1.00;;;;;;2264132;61;1345;-86
2022/02/21 04:52:40;500444.00;1.67;862.59;0.00;0.00;0.62;;;;;7.60;1.00;;;;;;2264271;61;1491;-85
2022/02/21 04:55:09;544018.00;1.81;937.65;0.00;0.00;0.62;;;;;7.80;1.00;;;;;;2264124;61;1308;-85
2022/02/21 04:57:36;1036392.00;3.45;1797.03;55349.00;0.18;96.44;;;;;7.50;1.00;;;;;;2264251;61;1074;-85
2022/02/21 05:00:04;1225986.00;4.09;2137.27;131264.00;0.44;227.51;;;;;7.80;1.00;;;;;;2264175;61;1993;-85
2022/02/21 05:02:31;2173280.00;7.24;3986.41;213635.00;0.71;369.39;;;;;7.50;1.00;;;;;;2264274;61;926;-86
2022/02/21 05:04:58;1325338.00;4.42;2318.55;90104.00;0.30;156.49;;;;;6.90;1.00;;;;;;2264209;61;1054;-86
2022/02/21 05:07:25;1658566.00;5.53;2945.20;199037.00;0.66;344.27;;;;;6.80;1.00;;;;;;2264175;61;1142;-85
2022/02/21 05:09:53;1407714.00;4.69;2470.64;144892.00;0.48;251.00;;;;;6.60;1.00;;;;;;2264151;61;1351;-85
2022/02/21 05:12:22;1125923.00;3.75;1956.85;151776.00;0.51;262.87;;;;;6.50;1.00;;;;;;2264211;61;976;-85
2022/02/21 05:14:49;119531944.00;398.44;69183360.00;97845.00;0.33;169.85;;;;;6.40;1.00;;;;;;2264106;61;1050;-86
2022/02/21 05:17:16;802427.00;2.67;1385.36;105206.00;0.35;182.56;;;;;6.30;1.00;;;;;;2264169;61;1239;-86
2022/02/21 05:19:43;816261.00;2.72;1409.50;93657.00;0.31;162.62;;;;;6.50;1.00;;;;;;2264112;61;1997;-86
2022/02/21 05:22:10;582404.00;1.94;1003.85;0.00;0.00;0.62;;;;;6.40;1.00;;;;;;2264134;61;1070;-86
2022/02/21 05:24:36;597579.00;1.99;1030.04;0.00;0.00;0.62;;;;;6.40;1.00;;;;;;2264191;61;1147;-86
2022/02/21 05:27:05;717874.00;2.39;1238.25;5123.00;0.02;9.50;;;;;6.50;1.00;;;;;;2264024;61;1130;-86
2022/02/21 05:29:32;635633.00;2.12;1095.79;0.00;0.00;0.62;;;;;6.40;1.00;;;;;;2263925;61;1558;-84
2022/02/21 05:31:59;974709.00;3.25;1687.73;19944.00;0.07;35.17;;;;;6.40;1.00;;;;;;2264037;61;2206;-86
2022/02/21 05:34:26;562249.00;1.87;969.08;0.00;0.00;0.62;;;;;6.60;1.00;;;;;;2263969;61;1126;-87
2022/02/21 05:36:53;824350.00;2.75;1423.62;0.00;0.00;0.62;;;;;6.60;1.00;;;;;;2263905;61;1127;-85
2022/02/21 05:39:20;576118.00;1.92;993.00;0.00;0.00;0.62;;;;;6.40;1.00;;;;;;2264031;61;1323;-87
2022/02/21 05:41:47;647081.00;2.16;1115.59;0.00;0.00;0.62;;;;;6.80;1.00;;;;;;2263951;61;2038;-86
2022/02/21 05:44:15;765033.00;2.55;1320.21;35419.00;0.12;61.96;;;;;6.80;1.00;;;;;;2263992;61;2128;-85
2022/02/21 05:46:44;714421.00;2.38;1232.26;0.00;0.00;0.62;;;;;6.80;1.00;;;;;;2264113;61;998;-86
2022/02/21 05:49:11;502705.00;1.68;866.48;0.00;0.00;0.62;;;;;7.00;1.00;;;;;;2264108;61;1335;-86
2022/02/21 05:51:38;682470.00;2.27;1176.85;0.00;0.00;0.62;;;;;7.00;1.00;;;;;;2264038;61;1154;-86
2022/02/21 05:54:05;760365.00;2.53;1312.08;0.00;0.00;0.62;;;;;7.40;1.00;;;;;;2264034;61;936;-85
2022/02/21 05:56:33;546296.00;1.82;941.57;0.00;0.00;0.62;;;;;7.10;1.00;;;;;;2263954;61;1126;-86
2022/02/21 05:59:00;756295.00;2.52;1305.00;0.00;0.00;0.62;;;;;6.70;1.00;;;;;;2263990;61;1740;-86
2022/02/21 06:01:28;727793.00;2.43;1255.47;0.00;0.00;0.62;;;;;6.90;1.00;;;;;;2263943;61;1931;-86
2022/02/21 06:03:55;662942.00;2.21;1143.03;0.00;0.00;0.62;;;;;6.80;1.00;;;;;;2264026;61;1063;-86
2022/02/21 06:06:22;693314.00;2.31;1195.65;0.00;0.00;0.62;;;;;7.00;1.00;;;;;;2263931;61;1545;-85
2022/02/21 06:08:49;673125.00;2.24;1160.66;0.00;0.00;0.62;;;;;6.80;1.00;;;;;;2264588;61;1374;-85
2022/02/21 06:11:16;697495.00;2.32;1202.89;44326.00;0.15;77.37;;;;;6.60;1.00;;;;;;2264738;61;941;-86
2022/02/21 06:13:43;723450.00;2.41;1247.93;0.00;0.00;0.62;;;;;6.50;1.00;;;;;;2264720;61;1103;-86
2022/02/21 06:16:09;775766.00;2.59;1338.89;18893.00;0.06;33.35;;;;;6.80;1.00;;;;;;2264730;61;953;-86
2022/02/21 06:18:38;664660.00;2.22;1146.01;0.00;0.00;0.62;;;;;7.10;1.00;;;;;;2264638;61;1356;-86
2022/02/21 06:21:04;806950.00;2.69;1393.25;0.00;0.00;0.62;;;;;7.20;1.00;;;;;;2264661;61;2009;-86
2022/02/21 06:23:31;605072.00;2.02;1042.98;0.00;0.00;0.62;;;;;7.30;1.00;;;;;;2264598;61;1032;-86
2022/02/21 06:25:58;606154.00;2.02;1044.85;0.00;0.00;0.62;;;;;7.00;1.00;;;;;;2264650;61;1115;-85
2022/02/21 06:28:25;565720.00;1.89;975.06;0.00;0.00;0.62;;;;;7.00;1.00;;;;;;2263645;61;2484;-86
2022/02/21 06:30:52;545402.00;1.82;940.03;0.00;0.00;0.62;;;;;7.10;1.00;;;;;;2262178;61;1140;-87
2022/02/21 06:33:19;597611.00;1.99;1030.10;0.00;0.00;0.62;;;;;7.40;1.00;;;;;;2264548;61;1075;-85
2022/02/21 06:35:47;738361.00;2.46;1273.83;0.00;0.00;0.62;;;;;8.00;1.00;;;;;;2264529;61;1110;-86
2022/02/21 06:38:14;669080.00;2.23;1153.66;0.00;0.00;0.62;;;;;7.90;1.00;;;;;;2264534;61;1340;-86
2022/02/21 06:40:41;743809.00;2.48;1283.29;0.00;0.00;0.62;;;;;7.60;1.00;;;;;;2264520;61;2006;-85
2022/02/21 06:43:08;578667.00;1.93;997.40;0.00;0.00;0.62;;;;;7.40;1.00;;;;;;2264533;61;1147;-85
2022/02/21 06:45:35;632204.00;2.11;1089.86;0.00;0.00;0.62;;;;;7.40;1.00;;;;;;2264551;61;1083;-86
2022/02/21 06:48:02;569442.00;1.90;981.48;0.00;0.00;0.62;;;;;7.10;1.00;;;;;;2264566;61;1362;-86
2022/02/21 06:50:29;721610.00;2.41;1244.73;24832.00;0.08;43.64;;;;;7.00;1.00;;;;;;2264601;61;934;-86
2022/02/21 06:52:59;565502.00;1.89;974.69;0.00;0.00;0.62;;;;;7.10;1.00;;;;;;2264580;61;2011;-86
2022/02/21 06:55:26;945174.00;3.15;1635.60;0.00;0.00;0.62;;;;;7.20;1.00;;;;;;2264573;61;1002;-85
2022/02/21 06:57:54;671270.00;2.24;1157.45;0.00;0.00;0.62;;;;;7.30;1.00;;;;;;2264471;61;1019;-86
2022/02/21 07:00:27;670929.00;2.24;1156.86;0.00;0.00;0.62;;;;;7.80;1.00;;;;;;2264452;61;2010;-86
2022/02/21 07:02:54;746456.00;2.49;1287.90;14761.00;0.05;26.20;;;;;7.90;1.00;;;;;;2264476;61;1217;-86
2022/02/21 07:05:21;650671.00;2.17;1121.80;0.00;0.00;0.62;;;;;7.60;1.00;;;;;;2264490;61;1041;-86
2022/02/21 07:07:54;696792.00;2.32;1201.68;0.00;0.00;0.62;;;;;7.60;1.00;;;;;;2264505;61;1109;-87
2022/02/21 07:10:25;829550.00;2.77;1432.71;0.00;0.00;0.62;;;;;7.70;1.00;;;;;;2264403;61;1431;-86
2022/02/21 07:12:52;122319128.00;407.73;74141352.00;0.00;0.00;0.62;;;;;8.00;1.00;;;;;;2264414;61;1578;-87
2022/02/21 07:15:19;608563.00;2.03;1049.01;0.00;0.00;0.62;;;;;7.90;1.00;;;;;;2264436;61;1047;-86
2022/02/21 07:17:49;688936.00;2.30;1188.06;0.00;0.00;0.62;;;;;7.80;1.00;;;;;;2264484;61;1023;-86
2022/02/21 07:20:19;1029230.00;3.43;1784.31;0.00;0.00;0.62;;;;;7.60;1.00;;;;;;2264291;61;1996;-86
2022/02/21 07:22:52;799872.00;2.67;1380.90;0.00;0.00;0.62;;;;;7.70;1.00;;;;;;2264437;61;1525;-86
2022/02/21 07:25:22;677177.00;2.26;1167.68;0.00;0.00;0.62;;;;;7.70;1.00;;;;;;2264444;61;1015;-86
2022/02/21 07:27:54;1091469.00;3.64;1895.17;30112.00;0.10;52.78;;;;;7.90;1.00;;;;;;2264433;61;961;-86
2022/02/21 07:30:33;801979.00;2.67;1384.58;0.00;0.00;0.62;;;;;8.00;1.00;;;;;;2264456;61;1318;-87
2022/02/21 07:33:09;538170.00;1.79;927.57;0.00;0.00;0.62;;;;;8.40;1.00;;;;;;2264426;61;2061;-87
2022/02/21 07:35:45;630744.00;2.10;1087.34;0.00;0.00;0.62;;;;;8.70;1.00;;;;;;2264425;61;1067;-87
2022/02/21 07:38:12;986954.00;3.29;1709.38;82427.00;0.27;143.23;;;;;8.60;1.00;;;;;;2264055;61;1554;-87
2022/02/21 07:40:47;914957.00;3.05;1582.40;91353.00;0.30;158.64;;;;;7.90;1.00;;;;;;2264223;61;1915;-86
2022/02/21 07:43:34;805336.00;2.68;1390.43;90790.00;0.30;157.67;;;;;8.30;1.00;;;;;;2264278;61;1371;-87
2022/02/21 07:46:11;138789920.00;462.63;108346008.00;210622.00;0.70;364.21;;;;;8.60;1.00;;;;;;2264309;61;1657;-86
2022/02/21 07:48:48;1608942.00;5.36;2849.84;92348.00;0.31;160.36;;;;;8.60;1.00;;;;;;2264319;61;1420;-88
2022/02/21 07:51:20;1638206.00;5.46;2905.98;76988.00;0.26;133.83;;;;;8.80;1.00;;;;;;2264185;61;1040;-86
2022/02/21 07:54:07;1156620.00;3.86;2011.98;10829.00;0.04;19.39;;;;;9.00;1.00;;;;;;2264320;61;1010;-87
2022/02/21 07:56:50;711364.00;2.37;1226.95;0.00;0.00;0.62;;;;;9.00;1.00;;;;;;2263993;61;1322;-87
2022/02/21 07:59:26;681193.00;2.27;1174.64;0.00;0.00;0.62;;;;;9.20;1.00;;;;;;2264119;61;1456;-88
2022/02/21 08:02:00;651786.00;2.17;1123.73;0.00;0.00;0.62;;;;;8.50;1.00;;;;;;2264056;61;2012;-88
2022/02/21 08:04:35;708022.00;2.36;1221.15;0.00;0.00;0.62;;;;;8.50;1.00;;;;;;2264039;61;1457;-87
2022/02/21 08:07:06;845477.00;2.82;1460.55;0.00;0.00;0.62;;;;;8.40;1.00;;;;;;2264097;61;988;-86
2022/02/21 08:09:37;877117.00;2.92;1515.96;0.00;0.00;0.62;;;;;7.90;1.00;;;;;;2264041;61;1436;-87
2022/02/21 08:12:08;764272.00;2.55;1318.88;0.00;0.00;0.62;;;;;8.30;1.00;;;;;;2264119;61;1619;-87
2022/02/21 08:14:47;744077.00;2.48;1283.76;27969.00;0.09;49.07;;;;;8.70;1.00;;;;;;2263872;61;2287;-87
2022/02/21 08:17:17;1009749.00;3.37;1749.75;35806.00;0.12;62.63;;;;;8.60;1.00;;;;;;2263971;61;1433;-87
2022/02/21 08:22:30;616144.00;2.05;1062.10;0.00;0.00;0.62;;;;;9.00;1.00;;;;;;2263995;61;1997;-85
2022/02/21 08:30:32;820583.00;2.74;1417.04;99762.00;0.33;173.16;;;;;9.50;1.00;;;;;;2264116;61;1319;-86
2022/02/21 08:33:20;970341.00;3.23;1680.01;109005.00;0.36;189.11;;;;;9.40;1.00;;;;;;2264205;61;991;-86
2022/02/21 08:35:57;1911671.00;6.37;3444.50;227275.00;0.76;392.86;;;;;9.40;1.00;;;;;;2264057;61;998;-85
2022/02/21 08:38:39;1482930.00;4.94;2611.04;94816.00;0.32;164.62;;;;;9.10;1.00;;;;;;2264080;61;1313;-87
2022/02/21 08:41:15;957039.00;3.19;1656.53;0.00;0.00;0.62;;;;;9.00;1.00;;;;;;2263968;61;1918;-86
2022/02/21 08:43:42;1446438.00;4.82;2542.73;99121.00;0.33;172.05;;;;;9.30;1.00;;;;;;2264143;61;939;-85
2022/02/21 08:49:03;1025548.00;3.42;1777.77;22804.00;0.08;40.13;;;;;9.00;1.00;;;;;;2264144;61;1508;-87
2022/02/21 08:51:44;642529.00;2.14;1107.71;36731.00;0.12;64.23;;;;;8.90;1.00;;;;;;2263805;61;1575;-88
2022/02/21 08:54:11;706599.00;2.36;1218.68;93236.00;0.31;161.90;;;;;9.00;1.00;;;;;;2264041;61;1483;-86
2022/02/21 08:56:50;833937.00;2.78;1440.38;30178.00;0.10;52.89;;;;;9.30;1.00;;;;;;2264056;61;1446;-88
2022/02/21 09:02:23;1049110.00;3.50;1819.65;38283.00;0.13;66.92;;;;;9.30;1.00;;;;;;2263635;61;1920;-87
2022/02/21 09:05:00;747877.00;2.49;1290.37;0.00;0.00;0.62;;;;;9.20;1.00;;;;;;2263909;61;1838;-87
2022/02/21 09:07:47;712166.00;2.37;1228.34;50531.00;0.17;88.10;;;;;9.10;1.00;;;;;;2264005;61;1464;-87
2022/02/21 09:10:19;813681.00;2.71;1404.99;0.00;0.00;0.62;;;;;9.40;1.00;;;;;;2264018;61;1404;-88
2022/02/21 09:13:04;925569.00;3.09;1601.07;33411.00;0.11;58.49;;;;;9.90;1.00;;;;;;2263958;61;1597;-86
2022/02/21 09:15:39;787315.00;2.62;1359.01;0.00;0.00;0.62;;;;;9.70;1.00;;;;;;2264127;61;1046;-88
2022/02/21 09:18:11;791767.00;2.64;1366.77;28616.00;0.10;50.19;;;;;9.80;1.00;;;;;;2264022;61;1631;-87
2022/02/21 09:20:39;715169.00;2.38;1233.55;38450.00;0.13;67.21;;;;;9.30;1.00;;;;;;2264029;61;2004;-87
2022/02/21 09:23:18;792518.00;2.64;1368.08;27321.00;0.09;47.95;;;;;9.40;1.00;;;;;;2263995;61;1449;-87
2022/02/21 09:25:49;733073.00;2.44;1264.64;0.00;0.00;0.62;;;;;9.60;1.00;;;;;;2263934;61;1448;-87
2022/02/21 09:28:21;664269.00;2.21;1145.33;0.00;0.00;0.62;;;;;9.70;1.00;;;;;;2263936;61;1493;-87
2022/02/21 09:31:03;955051.00;3.18;1653.02;14440.00;0.05;25.64;;;;;9.10;1.00;;;;;;2264018;61;1475;-87
2022/02/21 09:33:43;937169.00;3.12;1621.50;0.00;0.00;0.62;;;;;9.10;1.00;;;;;;2264012;61;1418;-88
2022/02/21 09:36:16;1199165.00;4.00;2088.71;0.00;0.00;0.62;;;;;8.90;1.00;;;;;;2264038;61;1389;-87
2022/02/21 09:39:04;1062085.00;3.54;1842.75;16238.00;0.05;28.75;;;;;8.50;1.00;;;;;;2263838;61;1378;-87
2022/02/21 09:41:36;1160258.00;3.87;2018.53;0.00;0.00;0.62;;;;;8.70;1.00;;;;;;2263986;61;2016;-86
2022/02/21 09:44:06;841433.00;2.80;1453.48;0.00;0.00;0.62;;;;;8.80;1.00;;;;;;2264431;61;1491;-88
2022/02/21 09:46:45;1079769.00;3.60;1874.28;35654.00;0.12;62.37;;;;;9.00;1.00;;;;;;2264509;61;1705;-87
2022/02/21 09:49:24;1019805.00;3.40;1767.58;0.00;0.00;0.62;;;;;9.10;1.00;;;;;;2264583;61;1484;-87
2022/02/21 09:51:51;927992.00;3.09;1605.34;113592.00;0.38;197.03;;;;;9.20;1.00;;;;;;2264620;61;1435;-87
2022/02/21 09:54:24;896259.00;2.99;1549.55;101897.00;0.34;176.85;;;;;9.60;1.00;;;;;;2264642;61;1462;-88
2022/02/21 09:56:56;919926.00;3.07;1591.14;137132.00;0.46;237.63;;;;;10.20;1.00;;;;;;2264692;61;1547;-88
2022/02/21 09:59:35;775866.00;2.59;1339.07;98030.00;0.33;170.17;;;;;9.70;1.00;;;;;;2264582;61;1376;-87
2022/02/21 10:02:11;884307.00;2.95;1528.57;120122.00;0.40;208.29;;;;;9.50;1.00;;;;;;2264597;61;2006;-86
2022/02/21 10:05:11;1239724.00;4.13;2162.21;124143.00;0.41;215.23;;;;;9.40;1.00;;;;;;2264596;61;1454;-87
2022/02/21 10:10:30;673634.00;2.25;1161.55;17645.00;0.06;31.19;;;;;9.20;1.00;;;;;;2264480;61;1092;-88
2022/02/21 10:14:00;2300987.00;7.67;4261.78;256720.00;0.86;443.51;;;;;9.20;1.00;;;;;;2264610;61;1076;-87
2022/02/21 10:19:36;813415.00;2.71;1404.53;0.00;0.00;0.62;;;;;8.80;1.00;;;;;;2249419;61;1772;-86